sensor_id;sensor_type;location;lat;lon;timestamp;pressure;altitude;pressure_sealevel;temperature;humidity
44144;BME280;68165;51.920;4.492;2023-04-25T00:01:20;66885.31;;;9.27;95.94
44144;BME280;68165;51.920;4.492;2023-04-25T00:03:48;66881.06;;;9.18;96.18
44144;BME280;68165;51.920;4.492;2023-04-25T00:06:13;66874.75;;;9.17;96.25
44144;BME280;68165;51.920;4.492;2023-04-25T00:08:39;66876.41;;;9.19;96.18
44144;BME280;68165;51.920;4.492;2023-04-25T00:11:04;66873.44;;;9.14;96.04
44144;BME280;68165;51.920;4.492;2023-04-25T00:13:30;66874.00;;;9.14;96.05
44144;BME280;68165;51.920;4.492;2023-04-25T00:15:55;66873.81;;;9.12;95.83
44144;BME280;68165;51.920;4.492;2023-04-25T00:18:23;66872.31;;;9.13;95.72
44144;BME280;68165;51.920;4.492;2023-04-25T00:20:49;66861.38;;;9.05;95.66
44144;BME280;68165;51.920;4.492;2023-04-25T00:23:18;66872.88;;;9.13;95.73
44144;BME280;68165;51.920;4.492;2023-04-25T00:25:44;66868.06;;;9.11;95.45
44144;BME280;68165;51.920;4.492;2023-04-25T00:28:11;66866.94;;;9.10;95.61
44144;BME280;68165;51.920;4.492;2023-04-25T00:30:38;66869.56;;;9.10;95.36
44144;BME280;68165;51.920;4.492;2023-04-25T00:33:03;66862.47;;;9.06;95.20
44144;BME280;68165;51.920;4.492;2023-04-25T00:35:29;66856.91;;;9.01;94.94
44144;BME280;68165;51.920;4.492;2023-04-25T00:37:54;66861.38;;;9.05;95.01
44144;BME280;68165;51.920;4.492;2023-04-25T00:40:20;66861.38;;;9.05;94.69
44144;BME280;68165;51.920;4.492;2023-04-25T00:42:46;66857.31;;;8.99;94.38
44144;BME280;68165;51.920;4.492;2023-04-25T00:45:13;66860.25;;;9.04;94.54
44144;BME280;68165;51.920;4.492;2023-04-25T00:47:41;66859.50;;;9.01;94.20
44144;BME280;68165;51.920;4.492;2023-04-25T00:50:08;66858.03;;;9.02;93.95
44144;BME280;68165;51.920;4.492;2023-04-25T00:52:33;66857.63;;;9.04;93.99
44144;BME280;68165;51.920;4.492;2023-04-25T00:54:59;66867.31;;;9.08;93.65
44144;BME280;68165;51.920;4.492;2023-04-25T00:57:25;66871.22;;;9.12;92.98
44144;BME280;68165;51.920;4.492;2023-04-25T00:59:51;66883.31;;;9.20;92.60
44144;BME280;68165;51.920;4.492;2023-04-25T01:02:18;66886.81;;;9.26;91.81
44144;BME280;68165;51.920;4.492;2023-04-25T01:04:46;66894.44;;;9.30;91.60
44144;BME280;68165;51.920;4.492;2023-04-25T01:07:12;66901.13;;;9.36;91.01
44144;BME280;68165;51.920;4.492;2023-04-25T01:09:38;66899.63;;;9.37;90.58
44144;BME280;68165;51.920;4.492;2023-04-25T01:12:03;66904.09;;;9.41;90.16
44144;BME280;68165;51.920;4.492;2023-04-25T01:14:29;66910.06;;;9.45;89.99
44144;BME280;68165;51.920;4.492;2023-04-25T01:16:55;66904.09;;;9.41;89.60
44144;BME280;68165;51.920;4.492;2023-04-25T01:19:20;66909.28;;;9.49;89.12
44144;BME280;68165;51.920;4.492;2023-04-25T01:21:46;66907.06;;;9.47;88.58
44144;BME280;68165;51.920;4.492;2023-04-25T01:24:12;66913.19;;;9.52;88.71
44144;BME280;68165;51.920;4.492;2023-04-25T01:26:38;66915.97;;;9.55;87.54
44144;BME280;68165;51.920;4.492;2023-04-25T01:29:04;66920.97;;;9.59;87.37
44144;BME280;68165;51.920;4.492;2023-04-25T01:31:30;66920.44;;;9.59;86.20
44144;BME280;68165;51.920;4.492;2023-04-25T01:33:57;66920.03;;;9.61;85.49
44144;BME280;68165;51.920;4.492;2023-04-25T01:36:22;66923.44;;;9.57;85.26
44144;BME280;68165;51.920;4.492;2023-04-25T01:38:48;66923.03;;;9.59;84.41
44144;BME280;68165;51.920;4.492;2023-04-25T01:41:14;66930.13;;;9.63;84.21
44144;BME280;68165;51.920;4.492;2023-04-25T01:43:40;66930.13;;;9.63;83.66
44144;BME280;68165;51.920;4.492;2023-04-25T01:46:06;66931.41;;;9.66;83.45
44144;BME280;68165;51.920;4.492;2023-04-25T01:48:31;66920.81;;;9.57;82.82
44144;BME280;68165;51.920;4.492;2023-04-25T01:50:56;66905.94;;;9.46;82.16
44144;BME280;68165;51.920;4.492;2023-04-25T01:53:22;66923.03;;;9.59;82.17
44144;BME280;68165;51.920;4.492;2023-04-25T01:55:47;66918.00;;;9.54;81.61
44144;BME280;68165;51.920;4.492;2023-04-25T01:58:13;66914.84;;;9.54;81.10
44144;BME280;68165;51.920;4.492;2023-04-25T02:00:38;66914.13;;;9.51;80.43
44144;BME280;68165;51.920;4.492;2023-04-25T02:03:06;66910.22;;;9.47;80.48
44144;BME280;68165;51.920;4.492;2023-04-25T02:05:37;66917.06;;;9.56;79.91
44144;BME280;68165;51.920;4.492;2023-04-25T02:08:06;66915.81;;;9.52;79.67
44144;BME280;68165;51.920;4.492;2023-04-25T02:10:32;66916.34;;;9.53;78.88
44144;BME280;68165;51.920;4.492;2023-04-25T02:12:58;66915.63;;;9.50;78.60
44144;BME280;68165;51.920;4.492;2023-04-25T02:15:23;66907.06;;;9.47;78.55
44144;BME280;68165;51.920;4.492;2023-04-25T02:17:49;66907.81;;;9.42;78.57
44144;BME280;68165;51.920;4.492;2023-04-25T02:20:14;66903.69;;;9.43;78.35
44144;BME280;68165;51.920;4.492;2023-04-25T02:22:41;66912.28;;;9.47;78.62
44144;BME280;68165;51.920;4.492;2023-04-25T02:25:07;66908.16;;;9.48;78.43
44144;BME280;68165;51.920;4.492;2023-04-25T02:27:34;66913.75;;;9.53;78.43
44144;BME280;68165;51.920;4.492;2023-04-25T02:29:59;66920.44;;;9.59;78.09
44144;BME280;68165;51.920;4.492;2023-04-25T02:32:25;66922.50;;;9.58;77.91
44144;BME280;68165;51.920;4.492;2023-04-25T02:34:50;66918.19;;;9.57;77.90
44144;BME280;68165;51.920;4.492;2023-04-25T02:37:16;66923.03;;;9.59;77.79
44144;BME280;68165;51.920;4.492;2023-04-25T02:39:41;66929.34;;;9.67;77.41
44144;BME280;68165;51.920;4.492;2023-04-25T02:42:06;66936.25;;;9.68;77.19
44144;BME280;68165;51.920;4.492;2023-04-25T02:44:32;66885.88;;;9.27;79.35
44144;BME280;68165;51.920;4.492;2023-04-25T02:46:57;66859.50;;;9.01;82.42
44144;BME280;68165;51.920;4.492;2023-04-25T02:49:22;66828.34;;;8.73;85.13
44144;BME280;68165;51.920;4.492;2023-04-25T02:51:48;66810.69;;;8.59;87.10
44144;BME280;68165;51.920;4.492;2023-04-25T02:54:13;66799.38;;;8.46;88.59
44144;BME280;68165;51.920;4.492;2023-04-25T02:56:39;66784.34;;;8.33;89.61
44144;BME280;68165;51.920;4.492;2023-04-25T02:59:05;66785.84;;;8.32;90.29
44144;BME280;68165;51.920;4.492;2023-04-25T03:01:30;66782.47;;;8.29;91.30
44144;BME280;68165;51.920;4.492;2023-04-25T03:03:55;66771.53;;;8.21;91.76
44144;BME280;68165;51.920;4.492;2023-04-25T03:06:21;66782.13;;;8.31;91.54
44144;BME280;68165;51.920;4.492;2023-04-25T03:08:46;66792.16;;;8.40;91.46
44144;BME280;68165;51.920;4.492;2023-04-25T03:11:11;66802.72;;;8.49;91.35
44144;BME280;68165;51.920;4.492;2023-04-25T03:13:37;66839.09;;;8.85;90.88
44144;BME280;68165;51.920;4.492;2023-04-25T03:16:02;66852.84;;;8.95;90.64
44144;BME280;68165;51.920;4.492;2023-04-25T03:18:27;66856.19;;;8.98;90.15
44144;BME280;68165;51.920;4.492;2023-04-25T03:20:52;66862.31;;;9.04;90.52
44144;BME280;68165;51.920;4.492;2023-04-25T03:23:17;66867.88;;;9.09;90.33
44144;BME280;68165;51.920;4.492;2023-04-25T03:25:43;66873.81;;;9.12;90.40
44144;BME280;68165;51.920;4.492;2023-04-25T03:28:08;66872.88;;;9.13;90.09
44144;BME280;68165;51.920;4.492;2023-04-25T03:30:33;66875.13;;;9.15;90.35
44144;BME280;68165;51.920;4.492;2023-04-25T03:32:58;66881.63;;;9.19;90.75
44144;BME280;68165;51.920;4.492;2023-04-25T03:35:24;66884.03;;;9.23;90.53
44144;BME280;68165;51.920;4.492;2023-04-25T03:37:49;66888.50;;;9.27;90.57
44144;BME280;68165;51.920;4.492;2023-04-25T03:40:16;66892.94;;;9.31;90.27
44144;BME280;68165;51.920;4.492;2023-04-25T03:42:41;66894.25;;;9.35;90.23
44144;BME280;68165;51.920;4.492;2023-04-25T03:45:07;66900.19;;;9.38;90.12
44144;BME280;68165;51.920;4.492;2023-04-25T03:47:32;66899.81;;;9.40;90.02
44144;BME280;68165;51.920;4.492;2023-04-25T03:49:57;66910.06;;;9.45;90.04
44144;BME280;68165;51.920;4.492;2023-04-25T03:52:22;66908.56;;;9.46;89.76
44144;BME280;68165;51.920;4.492;2023-04-25T03:54:48;66907.63;;;9.47;89.38
44144;BME280;68165;51.920;4.492;2023-04-25T03:57:13;66912.44;;;9.49;88.87
44144;BME280;68165;51.920;4.492;2023-04-25T03:59:38;66915.63;;;9.50;88.74
44144;BME280;68165;51.920;4.492;2023-04-25T04:02:03;66916.34;;;9.53;88.32
44144;BME280;68165;51.920;4.492;2023-04-25T04:04:29;66917.63;;;9.56;87.97
44144;BME280;68165;51.920;4.492;2023-04-25T04:06:55;66918.75;;;9.57;87.94
44144;BME280;68165;51.920;4.492;2023-04-25T04:09:20;66918.19;;;9.57;88.06
44144;BME280;68165;51.920;4.492;2023-04-25T04:11:45;66920.81;;;9.57;87.74
44144;BME280;68165;51.920;4.492;2023-04-25T04:14:10;66925.66;;;9.59;87.50
44144;BME280;68165;51.920;4.492;2023-04-25T04:16:36;66920.44;;;9.59;87.38
44144;BME280;68165;51.920;4.492;2023-04-25T04:19:01;66921.94;;;9.58;87.40
44144;BME280;68165;51.920;4.492;2023-04-25T04:21:26;66926.75;;;9.60;87.44
44144;BME280;68165;51.920;4.492;2023-04-25T04:23:52;66923.03;;;9.59;87.46
44144;BME280;68165;51.920;4.492;2023-04-25T04:26:17;66924.16;;;9.60;87.68
44144;BME280;68165;51.920;4.492;2023-04-25T04:28:43;66925.81;;;9.61;87.69
44144;BME280;68165;51.920;4.492;2023-04-25T04:31:09;66926.38;;;9.62;86.96
44144;BME280;68165;51.920;4.492;2023-04-25T04:33:34;66929.75;;;9.65;87.45
44144;BME280;68165;51.920;4.492;2023-04-25T04:36:00;66930.84;;;9.66;87.58
44144;BME280;68165;51.920;4.492;2023-04-25T04:38:25;66926.38;;;9.62;87.84
44144;BME280;68165;51.920;4.492;2023-04-25T04:40:51;66930.47;;;9.68;87.87
44144;BME280;68165;51.920;4.492;2023-04-25T04:43:17;66929.75;;;9.65;87.57
44144;BME280;68165;51.920;4.492;2023-04-25T04:45:43;66934.91;;;9.72;87.25
44144;BME280;68165;51.920;4.492;2023-04-25T04:48:09;66940.13;;;9.72;86.97
44144;BME280;68165;51.920;4.492;2023-04-25T04:50:36;66942.94;;;9.74;86.89
44144;BME280;68165;51.920;4.492;2023-04-25T04:53:02;66944.06;;;9.75;86.75
44144;BME280;68165;51.920;4.492;2023-04-25T04:55:27;66946.81;;;9.78;86.42
44144;BME280;68165;51.920;4.492;2023-04-25T04:57:52;66943.84;;;9.80;86.52
44144;BME280;68165;51.920;4.492;2023-04-25T05:00:18;66950.19;;;9.81;85.73
44144;BME280;68165;51.920;4.492;2023-04-25T05:02:43;66947.38;;;9.78;85.24
44144;BME280;68165;51.920;4.492;2023-04-25T05:05:08;66938.25;;;9.75;84.85
44144;BME280;68165;51.920;4.492;2023-04-25T05:07:34;66932.13;;;9.69;84.35
44144;BME280;68165;51.920;4.492;2023-04-25T05:09:59;66929.19;;;9.64;83.73
44144;BME280;68165;51.920;4.492;2023-04-25T05:12:24;66923.75;;;9.62;83.22
44144;BME280;68165;51.920;4.492;2023-04-25T05:14:50;66933.44;;;9.66;82.99
44144;BME280;68165;51.920;4.492;2023-04-25T05:17:15;66929.91;;;9.67;82.19
44144;BME280;68165;51.920;4.492;2023-04-25T05:19:40;66932.13;;;9.69;81.93
44144;BME280;68165;51.920;4.492;2023-04-25T05:22:06;66936.97;;;9.71;81.57
44144;BME280;68165;51.920;4.492;2023-04-25T05:24:31;66941.59;;;9.78;81.44
44144;BME280;68165;51.920;4.492;2023-04-25T05:26:56;66953.69;;;9.87;81.70
44144;BME280;68165;51.920;4.492;2023-04-25T05:29:21;66957.59;;;9.90;81.57
44144;BME280;68165;51.920;4.492;2023-04-25T05:31:46;66953.13;;;9.86;81.79
44144;BME280;68165;51.920;4.492;2023-04-25T05:34:13;66947.19;;;9.83;82.15
44144;BME280;68165;51.920;4.492;2023-04-25T05:36:38;66958.00;;;9.88;82.90
44144;BME280;68165;51.920;4.492;2023-04-25T05:39:03;66986.97;;;10.14;82.59
44144;BME280;68165;51.920;4.492;2023-04-25T05:41:29;67012.25;;;10.40;81.65
44144;BME280;68165;51.920;4.492;2023-04-25T05:43:54;67041.44;;;10.69;81.12
44144;BME280;68165;51.920;4.492;2023-04-25T05:46:20;67082.72;;;11.06;79.32
44144;BME280;68165;51.920;4.492;2023-04-25T05:48:45;67095.88;;;11.23;78.56
44144;BME280;68165;51.920;4.492;2023-04-25T05:51:10;67110.63;;;11.31;78.04
44144;BME280;68165;51.920;4.492;2023-04-25T05:53:35;67120.34;;;11.35;77.41
44144;BME280;68165;51.920;4.492;2023-04-25T05:56:01;67119.00;;;11.39;77.26
44144;BME280;68165;51.920;4.492;2023-04-25T05:58:26;67125.88;;;11.48;76.70
44144;BME280;68165;51.920;4.492;2023-04-25T06:00:51;67165.19;;;11.78;75.97
44144;BME280;68165;51.920;4.492;2023-04-25T06:03:17;67185.28;;;11.97;74.02
44144;BME280;68165;51.920;4.492;2023-04-25T06:05:42;67192.94;;;12.01;73.07
44144;BME280;68165;51.920;4.492;2023-04-25T06:08:08;67180.81;;;11.93;72.19
44144;BME280;68165;51.920;4.492;2023-04-25T06:10:33;67162.00;;;11.78;71.81
44144;BME280;68165;51.920;4.492;2023-04-25T06:12:58;67159.97;;;11.71;72.01
44144;BME280;68165;51.920;4.492;2023-04-25T06:15:23;67152.47;;;11.69;71.95
44144;BME280;68165;51.920;4.492;2023-04-25T06:17:49;67154.72;;;11.71;71.71
44144;BME280;68165;51.920;4.492;2023-04-25T06:20:14;67154.91;;;11.74;71.03
44144;BME280;68165;51.920;4.492;2023-04-25T06:22:39;67155.28;;;11.72;70.54
44144;BME280;68165;51.920;4.492;2023-04-25T06:25:05;67155.66;;;11.70;70.28
44144;BME280;68165;51.920;4.492;2023-04-25T06:27:32;67149.38;;;11.62;70.27
44144;BME280;68165;51.920;4.492;2023-04-25T06:29:57;67135.75;;;11.54;70.81
44144;BME280;68165;51.920;4.492;2023-04-25T06:32:22;67131.25;;;11.50;70.98
44144;BME280;68165;51.920;4.492;2023-04-25T06:34:47;67127.94;;;11.47;70.69
44144;BME280;68165;51.920;4.492;2023-04-25T06:37:12;67130.16;;;11.49;71.19
44144;BME280;68165;51.920;4.492;2023-04-25T06:39:38;67130.72;;;11.50;71.46
44144;BME280;68165;51.920;4.492;2023-04-25T06:42:03;67132.94;;;11.52;71.27
44144;BME280;68165;51.920;4.492;2023-04-25T06:44:28;67137.63;;;11.51;71.55
44144;BME280;68165;51.920;4.492;2023-04-25T06:46:55;67131.25;;;11.50;71.72
44144;BME280;68165;51.920;4.492;2023-04-25T06:49:20;67139.31;;;11.53;71.65
44144;BME280;68165;51.920;4.492;2023-04-25T06:51:45;67135.75;;;11.54;71.78
44144;BME280;68165;51.920;4.492;2023-04-25T06:54:10;67145.63;;;11.61;71.47
44144;BME280;68165;51.920;4.492;2023-04-25T06:56:36;67165.00;;;11.76;71.14
44144;BME280;68165;51.920;4.492;2023-04-25T06:59:01;67178.75;;;11.93;70.58
44144;BME280;68165;51.920;4.492;2023-04-25T07:01:26;67195.50;;;12.08;70.33
44144;BME280;68165;51.920;4.492;2023-04-25T07:03:51;67212.66;;;12.21;69.60
44144;BME280;68165;51.920;4.492;2023-04-25T07:06:17;67229.03;;;12.39;69.49
44144;BME280;68165;51.920;4.492;2023-04-25T07:08:42;67246.34;;;12.54;68.49
44144;BME280;68165;51.920;4.492;2023-04-25T07:11:07;67257.50;;;12.64;68.20
44144;BME280;68165;51.920;4.492;2023-04-25T07:13:32;67274.28;;;12.80;67.37
44144;BME280;68165;51.920;4.492;2023-04-25T07:15:58;67283.94;;;12.91;66.95
44144;BME280;68165;51.920;4.492;2023-04-25T07:18:25;67296.31;;;12.95;66.69
44144;BME280;68165;51.920;4.492;2023-04-25T07:20:50;67291.03;;;12.95;66.46
44144;BME280;68165;51.920;4.492;2023-04-25T07:23:15;67301.50;;;13.02;66.44
44144;BME280;68165;51.920;4.492;2023-04-25T07:25:41;67294.78;;;12.96;66.37
44144;BME280;68165;51.920;4.492;2023-04-25T07:28:06;67284.75;;;12.87;66.30
44144;BME280;68165;51.920;4.492;2023-04-25T07:30:31;67282.16;;;12.80;66.37
44144;BME280;68165;51.920;4.492;2023-04-25T07:32:56;67306.69;;;13.09;66.00
44144;BME280;68165;51.920;4.492;2023-04-25T07:35:22;67365.44;;;13.62;63.83
44144;BME280;68165;51.920;4.492;2023-04-25T07:37:47;67428.22;;;14.21;61.46
44144;BME280;68165;51.920;4.492;2023-04-25T07:40:13;67486.13;;;14.69;59.99
44144;BME280;68165;51.920;4.492;2023-04-25T07:42:40;67541.00;;;15.19;58.28
44144;BME280;68165;51.920;4.492;2023-04-25T07:45:05;67563.94;;;15.39;57.43
44144;BME280;68165;51.920;4.492;2023-04-25T07:47:31;67582.06;;;15.58;57.21
44144;BME280;68165;51.920;4.492;2023-04-25T07:49:56;67598.16;;;15.70;56.47
44144;BME280;68165;51.920;4.492;2023-04-25T07:52:22;67591.41;;;15.64;55.55
44144;BME280;68165;51.920;4.492;2023-04-25T07:54:48;67568.03;;;15.45;55.70
44144;BME280;68165;51.920;4.492;2023-04-25T07:57:13;67579.81;;;15.56;55.58
44144;BME280;68165;51.920;4.492;2023-04-25T07:59:39;67587.66;;;15.63;55.04
44144;BME280;68165;51.920;4.492;2023-04-25T08:02:04;67562.44;;;15.40;54.58
44144;BME280;68165;51.920;4.492;2023-04-25T08:04:30;67545.63;;;15.25;54.94
44144;BME280;68165;51.920;4.492;2023-04-25T08:06:55;67546.03;;;15.23;55.51
44144;BME280;68165;51.920;4.492;2023-04-25T08:09:20;67549.56;;;15.29;55.41
44144;BME280;68165;51.920;4.492;2023-04-25T08:11:46;67537.25;;;15.18;55.67
44144;BME280;68165;51.920;4.492;2023-04-25T08:14:12;67489.09;;;14.74;54.08
44144;BME280;68165;51.920;4.492;2023-04-25T08:16:38;67441.50;;;14.31;53.94
44144;BME280;68165;51.920;4.492;2023-04-25T08:19:04;67398.03;;;13.94;54.46
44144;BME280;68165;51.920;4.492;2023-04-25T08:21:30;67371.41;;;13.65;55.13
44144;BME280;68165;51.920;4.492;2023-04-25T08:23:55;67349.75;;;13.48;55.44
44144;BME280;68165;51.920;4.492;2023-04-25T08:26:20;67334.81;;;13.37;55.68
44144;BME280;68165;51.920;4.492;2023-04-25T08:28:46;67343.28;;;13.37;55.49
44144;BME280;68165;51.920;4.492;2023-04-25T08:31:11;67343.59;;;13.42;55.64
44144;BME280;68165;51.920;4.492;2023-04-25T08:33:36;67343.22;;;13.44;54.76
44144;BME280;68165;51.920;4.492;2023-04-25T08:36:01;67370.84;;;13.65;53.96
44144;BME280;68165;51.920;4.492;2023-04-25T08:38:27;67396.19;;;13.90;52.45
44144;BME280;68165;51.920;4.492;2023-04-25T08:40:52;67422.47;;;14.14;51.37
44144;BME280;68165;51.920;4.492;2023-04-25T08:43:19;67442.47;;;14.29;50.61
44144;BME280;68165;51.920;4.492;2023-04-25T08:45:44;67458.88;;;14.47;50.14
44144;BME280;68165;51.920;4.492;2023-04-25T08:48:11;67511.06;;;14.96;49.46
44144;BME280;68165;51.920;4.492;2023-04-25T08:50:40;67585.97;;;15.62;48.09
44144;BME280;68165;51.920;4.492;2023-04-25T08:53:09;67622.78;;;15.92;45.94
44144;BME280;68165;51.920;4.492;2023-04-25T08:55:38;67631.19;;;16.00;45.35
44144;BME280;68165;51.920;4.492;2023-04-25T08:58:06;67624.78;;;15.99;44.21
44144;BME280;68165;51.920;4.492;2023-04-25T09:00:31;67605.19;;;15.81;43.92
44144;BME280;68165;51.920;4.492;2023-04-25T09:02:57;67590.47;;;15.66;44.41
44144;BME280;68165;51.920;4.492;2023-04-25T09:05:23;67588.59;;;15.62;44.98
44144;BME280;68165;51.920;4.492;2023-04-25T09:07:49;67584.69;;;15.58;45.30
44144;BME280;68165;51.920;4.492;2023-04-25T09:10:14;67585.41;;;15.61;45.79
44144;BME280;68165;51.920;4.492;2023-04-25T09:12:39;67611.19;;;15.84;46.09
44144;BME280;68165;51.920;4.492;2023-04-25T09:15:08;67606.38;;;15.75;46.40
44144;BME280;68165;51.920;4.492;2023-04-25T09:17:34;67551.81;;;15.31;44.54
44144;BME280;68165;51.920;4.492;2023-04-25T09:20:07;67539.88;;;15.18;44.97
44144;BME280;68165;51.920;4.492;2023-04-25T09:22:33;67554.44;;;15.31;45.42
44144;BME280;68165;51.920;4.492;2023-04-25T09:24:58;67563.00;;;15.41;44.70
44144;BME280;68165;51.920;4.492;2023-04-25T09:27:27;67601.50;;;15.73;44.11
44144;BME280;68165;51.920;4.492;2023-04-25T09:29:58;67621.28;;;15.93;43.67
44144;BME280;68165;51.920;4.492;2023-04-25T09:32:25;67621.09;;;15.91;41.94
44144;BME280;68165;51.920;4.492;2023-04-25T09:34:51;67623.09;;;15.98;41.98
44144;BME280;68165;51.920;4.492;2023-04-25T09:37:24;67642.41;;;16.10;41.54
44144;BME280;68165;51.920;4.492;2023-04-25T09:39:53;67650.81;;;16.18;40.00
44144;BME280;68165;51.920;4.492;2023-04-25T09:42:21;67672.44;;;16.42;40.09
44144;BME280;68165;51.920;4.492;2023-04-25T09:44:46;67708.72;;;16.72;39.59
44144;BME280;68165;51.920;4.492;2023-04-25T09:47:13;67724.41;;;16.87;39.03
44144;BME280;68165;51.920;4.492;2023-04-25T09:49:39;67739.41;;;16.98;38.87
44144;BME280;68165;51.920;4.492;2023-04-25T09:52:06;67758.78;;;17.20;38.58
44144;BME280;68165;51.920;4.492;2023-04-25T09:54:31;67775.69;;;17.28;38.32
44144;BME280;68165;51.920;4.492;2023-04-25T09:56:56;67766.88;;;17.23;38.55
44144;BME280;68165;51.920;4.492;2023-04-25T09:59:24;67754.72;;;17.14;38.12
44144;BME280;68165;51.920;4.492;2023-04-25T10:01:49;67772.34;;;17.25;37.41
44144;BME280;68165;51.920;4.492;2023-04-25T10:04:19;67784.44;;;17.41;36.56
44144;BME280;68165;51.920;4.492;2023-04-25T10:06:45;67811.22;;;17.63;36.00
44144;BME280;68165;51.920;4.492;2023-04-25T10:09:11;67832.13;;;17.84;35.85
44144;BME280;68165;51.920;4.492;2023-04-25T10:11:37;67840.97;;;17.89;36.25
44144;BME280;68165;51.920;4.492;2023-04-25T10:14:03;67822.06;;;17.75;36.89
44144;BME280;68165;51.920;4.492;2023-04-25T10:16:29;67762.97;;;17.19;38.08
44144;BME280;68165;51.920;4.492;2023-04-25T10:18:56;67624.63;;;15.97;40.39
44144;BME280;68165;51.920;4.492;2023-04-25T10:21:22;67626.47;;;16.01;40.60
44144;BME280;68165;51.920;4.492;2023-04-25T10:23:49;67634.16;;;16.05;40.79
44144;BME280;68165;51.920;4.492;2023-04-25T10:26:14;67613.28;;;15.84;41.65
44144;BME280;68165;51.920;4.492;2023-04-25T10:28:59;67605.56;;;15.79;42.20
44144;BME280;68165;51.920;4.492;2023-04-25T10:31:26;67644.41;;;16.17;41.60
44144;BME280;68165;51.920;4.492;2023-04-25T10:33:51;67660.66;;;16.31;40.08
44144;BME280;68165;51.920;4.492;2023-04-25T10:36:19;67662.44;;;16.26;39.36
44144;BME280;68165;51.920;4.492;2023-04-25T10:38:47;67697.91;;;16.60;38.93
44144;BME280;68165;51.920;4.492;2023-04-25T10:41:14;67748.38;;;17.06;38.15
44144;BME280;68165;51.920;4.492;2023-04-25T10:43:45;67831.00;;;17.83;36.72
44144;BME280;68165;51.920;4.492;2023-04-25T10:46:24;67788.38;;;17.44;38.02
44144;BME280;68165;51.920;4.492;2023-04-25T10:48:55;67718.09;;;16.79;39.83
44144;BME280;68165;51.920;4.492;2023-04-25T10:51:24;67661.06;;;16.29;41.52
44144;BME280;68165;51.920;4.492;2023-04-25T10:54:07;67608.22;;;15.79;42.57
44144;BME280;68165;51.920;4.492;2023-04-25T10:56:37;67562.81;;;15.38;43.38
44144;BME280;68165;51.920;4.492;2023-04-25T10:59:10;67527.88;;;15.11;43.89
44144;BME280;68165;51.920;4.492;2023-04-25T11:01:44;67551.63;;;15.28;43.25
44144;BME280;68165;51.920;4.492;2023-04-25T11:07:12;67629.13;;;16.01;41.55
44144;BME280;68165;51.920;4.492;2023-04-25T11:09:40;67605.44;;;15.77;40.90
44144;BME280;68165;51.920;4.492;2023-04-25T11:12:07;67580.22;;;15.54;41.12
44144;BME280;68165;51.920;4.492;2023-04-25T11:14:33;67592.84;;;15.70;41.23
44144;BME280;68165;51.920;4.492;2023-04-25T11:16:59;67659.78;;;16.26;39.81
44144;BME280;68165;51.920;4.492;2023-04-25T11:19:28;67704.22;;;16.68;38.79
44144;BME280;68165;51.920;4.492;2023-04-25T11:21:58;67710.66;;;16.69;38.53
44144;BME280;68165;51.920;4.492;2023-04-25T11:24:27;67680.09;;;16.47;39.01
44144;BME280;68165;51.920;4.492;2023-04-25T11:26:53;67643.91;;;16.09;39.45
44144;BME280;68165;51.920;4.492;2023-04-25T11:29:22;67634.72;;;16.06;39.91
44144;BME280;68165;51.920;4.492;2023-04-25T11:31:47;67660.88;;;16.27;39.52
44144;BME280;68165;51.920;4.492;2023-04-25T11:34:17;67654.91;;;16.24;39.76
44144;BME280;68165;51.920;4.492;2023-04-25T11:36:44;67639.19;;;16.10;39.23
44144;BME280;68165;51.920;4.492;2023-04-25T11:39:10;67608.38;;;15.82;39.17
44144;BME280;68165;51.920;4.492;2023-04-25T11:41:37;67570.44;;;15.50;39.70
44144;BME280;68165;51.920;4.492;2023-04-25T11:44:03;67549.16;;;15.31;39.58
44144;BME280;68165;51.920;4.492;2023-04-25T11:46:28;67551.63;;;15.28;39.48
44144;BME280;68165;51.920;4.492;2023-04-25T11:48:55;67565.47;;;15.38;38.77
44144;BME280;68165;51.920;4.492;2023-04-25T11:51:21;67587.34;;;15.58;38.19
44144;BME280;68165;51.920;4.492;2023-04-25T11:53:46;67600.38;;;15.72;37.40
44144;BME280;68165;51.920;4.492;2023-04-25T11:56:11;67634.00;;;16.03;37.11
44144;BME280;68165;51.920;4.492;2023-04-25T11:58:56;67684.03;;;16.50;36.59
44144;BME280;68165;51.920;4.492;2023-04-25T12:01:30;67672.81;;;16.40;36.90
44144;BME280;68165;51.920;4.492;2023-04-25T12:03:56;67645.91;;;16.16;37.10
44144;BME280;68165;51.920;4.492;2023-04-25T12:06:26;67639.19;;;16.10;37.16
44144;BME280;68165;51.920;4.492;2023-04-25T12:11:26;67663.88;;;16.32;37.72
44144;BME280;68165;51.920;4.492;2023-04-25T12:13:52;67683.72;;;16.45;37.09
44144;BME280;68165;51.920;4.492;2023-04-25T12:16:19;67667.78;;;16.36;37.01
44144;BME280;68165;51.920;4.492;2023-04-25T12:18:44;67692.44;;;16.58;36.01
44144;BME280;68165;51.920;4.492;2023-04-25T12:21:09;67721.63;;;16.84;35.74
44144;BME280;68165;51.920;4.492;2023-04-25T12:23:38;67700.88;;;16.65;36.65
44144;BME280;68165;51.920;4.492;2023-04-25T12:26:03;67670.19;;;16.40;38.32
44144;BME280;68165;51.920;4.492;2023-04-25T12:28:31;67650.25;;;16.17;39.07
44144;BME280;68165;51.920;4.492;2023-04-25T12:31:05;67636.81;;;16.05;39.36
44144;BME280;68165;51.920;4.492;2023-04-25T12:33:35;67626.31;;;15.98;39.03
44144;BME280;68165;51.920;4.492;2023-04-25T12:36:03;67621.09;;;15.91;39.38
44144;BME280;68165;51.920;4.492;2023-04-25T12:38:40;67605.56;;;15.79;39.55
44144;BME280;68165;51.920;4.492;2023-04-25T12:41:05;67592.22;;;15.60;39.50
44144;BME280;68165;51.920;4.492;2023-04-25T12:43:31;67557.41;;;15.36;39.88
44144;BME280;68165;51.920;4.492;2023-04-25T12:45:56;67556.09;;;15.32;40.15
44144;BME280;68165;51.920;4.492;2023-04-25T12:48:22;67593.25;;;15.68;39.92
44144;BME280;68165;51.920;4.492;2023-04-25T12:50:49;67630.25;;;16.02;39.33
44144;BME280;68165;51.920;4.492;2023-04-25T12:53:16;67672.13;;;16.37;39.19
44144;BME280;68165;51.920;4.492;2023-04-25T12:55:42;67682.19;;;16.46;38.32
44144;BME280;68165;51.920;4.492;2023-04-25T12:58:07;67681.78;;;16.48;37.96
44144;BME280;68165;51.920;4.492;2023-04-25T13:00:33;67679.97;;;16.44;37.05
44144;BME280;68165;51.920;4.492;2023-04-25T13:02:58;67661.06;;;16.29;36.31
44144;BME280;68165;51.920;4.492;2023-04-25T13:05:24;67635.28;;;16.06;36.47